Time;durP1;ratioP1;P1;durP2;ratioP2;P2;SDS_P1;SDS_P2;PMS_P1;PMS_P2;Temp;Humidity;BMP_temperature;BMP_pressure;BME280_temperature;BME280_humidity;BME280_pressure;Samples;Min_cycle;Max_cycle;Signal;HPM_P1;HPM_P2
2021/03/05 00:01:24;;;;;;;142.85;68.95;;;205.40;1254.40;;;;;;4902359;29;20032;-76
2021/03/05 00:03:50;;;;;;;133.35;64.50;;;205.40;1254.40;;;;;;4919386;29;20028;-74
2021/03/05 00:06:16;;;;;;;125.63;60.35;;;205.40;1254.40;;;;;;4919142;29;20453;-74
2021/03/05 00:08:41;;;;;;;112.05;55.65;;;205.30;1254.40;;;;;;4919430;29;20462;-73
2021/03/05 00:11:07;;;;;;;103.35;51.50;;;205.30;1254.40;;;;;;4918151;29;20065;-62
2021/03/05 00:13:33;;;;;;;103.50;49.72;;;205.30;1254.40;;;;;;4919504;29;20028;-73
2021/03/05 00:15:59;;;;;;;99.20;49.05;;;205.30;1254.40;;;;;;4918487;29;20398;-71
2021/03/05 00:18:25;;;;;;;121.55;55.40;;;205.30;1254.40;;;;;;4917515;29;20499;-72
2021/03/05 00:20:52;;;;;;;125.22;58.38;;;205.30;1254.40;;;;;;4918490;29;20040;-70
2021/03/05 00:23:20;;;;;;;111.55;56.08;;;205.30;1254.40;;;;;;4918574;29;20032;-68
2021/03/05 00:25:45;;;;;;;114.35;52.00;;;205.30;1254.40;;;;;;4918660;29;20033;-72
2021/03/05 00:28:11;;;;;;;101.15;48.55;;;205.20;1280.00;;;;;;4918084;29;20047;-72
2021/03/05 00:30:37;;;;;;;88.93;45.42;;;205.20;1280.00;;;;;;4918267;29;20135;-72
2021/03/05 00:33:04;;;;;;;89.28;41.88;;;205.20;1280.00;;;;;;4915171;29;20450;-74
2021/03/05 00:35:30;;;;;;;79.90;40.38;;;205.20;1254.40;;;;;;4917734;29;20394;-73
2021/03/05 00:37:55;;;;;;;71.93;36.58;;;205.20;1254.40;;;;;;4918429;29;20095;-72
2021/03/05 00:40:23;;;;;;;74.28;36.40;;;205.30;1254.40;;;;;;4918362;29;20032;-73
2021/03/05 00:42:50;;;;;;;70.13;36.10;;;205.30;1280.00;;;;;;4918626;29;20024;-72
2021/03/05 00:45:19;;;;;;;74.35;37.80;;;205.30;1280.00;;;;;;4918392;29;20107;-70
2021/03/05 00:47:45;;;;;;;76.47;39.40;;;205.30;1280.00;;;;;;4918965;29;20114;-74
2021/03/05 00:50:12;;;;;;;75.82;39.38;;;205.30;1280.00;;;;;;4918599;29;20063;-73
2021/03/05 00:52:38;;;;;;;78.63;38.58;;;205.30;1280.00;;;;;;4918667;29;20040;-73
2021/03/05 00:55:06;;;;;;;78.18;36.58;;;205.30;1280.00;;;;;;4918723;29;20028;-73
2021/03/05 00:57:31;;;;;;;71.45;37.53;;;205.40;1280.00;;;;;;4918703;29;20036;-74
2021/03/05 00:59:57;;;;;;;81.40;37.92;;;205.30;1254.40;;;;;;4918560;29;20028;-74
2021/03/05 01:02:23;;;;;;;73.22;36.17;;;205.30;1280.00;;;;;;4918713;29;20039;-74
2021/03/05 01:04:48;;;;;;;64.25;35.28;;;205.40;1280.00;;;;;;4917819;29;20602;-73
2021/03/05 01:07:15;;;;;;;64.03;32.40;;;205.30;1254.40;;;;;;4918300;29;20494;-78
2021/03/05 01:09:41;;;;;;;69.00;33.78;;;205.30;1280.00;;;;;;4918474;29;20375;-75
2021/03/05 01:12:07;;;;;;;63.35;31.67;;;205.30;1280.00;;;;;;4918400;29;20040;-72
2021/03/05 01:14:33;;;;;;;63.97;30.50;;;205.30;1280.00;;;;;;4918333;29;20111;-73
2021/03/05 01:16:59;;;;;;;56.40;29.88;;;205.30;1254.40;;;;;;4918520;29;20107;-77
2021/03/05 01:19:27;;;;;;;57.08;29.63;;;205.30;1254.40;;;;;;4918540;29;20032;-78
2021/03/05 01:21:53;;;;;;;54.42;29.70;;;205.30;1254.40;;;;;;4918478;29;20031;-76
2021/03/05 01:24:19;;;;;;;50.75;27.13;;;205.30;1254.40;;;;;;4918428;29;20028;-75
2021/03/05 01:26:45;;;;;;;59.30;27.67;;;205.30;1254.40;;;;;;4918199;29;20489;-74
2021/03/05 01:29:10;;;;;;;50.83;27.52;;;205.40;1254.40;;;;;;4918122;29;20036;-74
2021/03/05 01:31:36;;;;;;;58.50;27.38;;;205.30;1280.00;;;;;;4917943;29;20040;-72
2021/03/05 01:34:05;;;;;;;46.63;25.85;;;205.40;1254.40;;;;;;4917771;29;20048;-75
2021/03/05 01:36:31;;;;;;;62.13;27.45;;;205.30;1254.40;;;;;;4918191;29;20038;-75
2021/03/05 01:38:57;;;;;;;53.35;25.92;;;205.40;1254.40;;;;;;4918058;29;20107;-75
2021/03/05 01:41:22;;;;;;;60.72;29.17;;;205.40;1254.40;;;;;;4917940;29;20415;-75
2021/03/05 01:43:49;;;;;;;69.82;33.72;;;205.40;1254.40;;;;;;4918154;29;20111;-76
2021/03/05 01:46:17;;;;;;;77.35;36.63;;;205.40;1254.40;;;;;;4918287;29;20091;-77
2021/03/05 01:48:42;;;;;;;79.25;35.67;;;205.40;1254.40;;;;;;4917833;29;20092;-72
2021/03/05 01:51:17;;;;;;;65.13;33.38;;;205.60;1254.40;;;;;;4917789;29;20036;-71
2021/03/05 01:53:44;;;;;;;59.63;31.30;;;205.40;1254.40;;;;;;4918196;29;20377;-79
2021/03/05 01:56:19;;;;;;;48.60;27.45;;;205.40;1254.40;;;;;;4917971;29;20388;-76
2021/03/05 01:58:45;;;;;;;48.15;25.48;;;205.30;1280.00;;;;;;4917944;29;20053;-76
2021/03/05 02:01:11;;;;;;;57.45;27.05;;;205.30;1280.00;;;;;;4917821;29;20052;-74
2021/03/05 02:03:37;;;;;;;49.30;27.05;;;205.30;1280.00;;;;;;4917712;29;20032;-74
2021/03/05 02:06:05;;;;;;;54.88;27.30;;;205.20;1280.00;;;;;;4918054;29;20374;-74
2021/03/05 02:08:31;;;;;;;55.70;27.25;;;205.20;1280.00;;;;;;4917691;29;20024;-74
2021/03/05 02:10:57;;;;;;;52.03;27.23;;;205.10;1280.00;;;;;;4918044;29;20071;-74
2021/03/05 02:13:23;;;;;;;49.33;25.15;;;205.10;1280.00;;;;;;4917605;29;20052;-74
2021/03/05 02:15:51;;;;;;;50.00;25.58;;;205.00;1305.60;;;;;;4922673;29;20024;-73
2021/03/05 02:18:40;;;;;;;45.53;24.10;;;204.90;1305.60;;;;;;4924046;29;20028;-74
2021/03/05 02:21:36;;;;;;;44.03;23.60;;;204.90;1305.60;;;;;;4923747;29;20036;-72
2021/03/05 02:24:46;;;;;;;40.83;23.15;;;204.90;1305.60;;;;;;4923921;29;20032;-74
2021/03/05 02:27:33;;;;;;;50.15;23.95;;;204.90;1305.60;;;;;;4865785;29;20037;-74
2021/03/05 02:30:37;;;;;;;42.30;23.58;;;204.80;1331.20;;;;;;4865650;29;20088;-74
2021/03/05 02:33:27;;;;;;;37.67;19.73;;;204.90;1305.60;;;;;;4865244;29;20153;-74
2021/03/05 02:35:55;;;;;;;35.05;19.65;;;204.90;1305.60;;;;;;4865129;29;20103;-76
2021/03/05 02:38:24;;;;;;;38.00;20.90;;;204.80;1305.60;;;;;;4865470;29;20053;-73
2021/03/05 02:40:54;;;;;;;43.92;21.80;;;204.90;1305.60;;;;;;4865709;29;20037;-75
2021/03/05 02:43:23;;;;;;;36.53;20.90;;;204.90;1331.20;;;;;;4865301;29;20056;-77
2021/03/05 02:46:02;;;;;;;41.70;22.65;;;204.90;1305.60;;;;;;4865343;29;20031;-75
2021/03/05 02:48:34;;;;;;;34.50;20.50;;;204.90;1305.60;;;;;;4865493;29;20054;-77
2021/03/05 02:51:02;;;;;;;35.05;17.75;;;204.90;1305.60;;;;;;4865313;29;20102;-77
2021/03/05 02:53:30;;;;;;;32.65;18.27;;;204.90;1331.20;;;;;;4865863;29;20028;-73
2021/03/05 02:56:00;;;;;;;34.60;16.70;;;204.90;1331.20;;;;;;4865606;29;20120;-80
2021/03/05 02:58:28;;;;;;;27.77;16.48;;;204.90;1331.20;;;;;;4865650;29;20072;-79
2021/03/05 03:00:56;;;;;;;29.42;15.52;;;204.90;1331.20;;;;;;4865605;29;20097;-79
2021/03/05 03:03:23;;;;;;;27.05;16.52;;;204.90;1331.20;;;;;;4913464;29;20029;-75
2021/03/05 03:05:51;;;;;;;28.42;16.42;;;204.90;1331.20;;;;;;4923684;29;20028;-75
2021/03/05 03:08:18;;;;;;;26.83;15.27;;;204.90;1331.20;;;;;;4923450;29;20028;-75
2021/03/05 03:10:45;;;;;;;32.58;15.73;;;204.90;1331.20;;;;;;4923652;29;20044;-76
2021/03/05 03:13:12;;;;;;;27.90;15.35;;;205.00;1331.20;;;;;;4923553;29;20028;-77
2021/03/05 03:15:39;;;;;;;31.42;16.13;;;205.00;1331.20;;;;;;4923644;29;20028;-76
2021/03/05 03:18:08;;;;;;;29.20;16.40;;;205.10;1331.20;;;;;;4923691;29;20168;-77
2021/03/05 03:20:34;;;;;;;30.70;15.60;;;205.10;1305.60;;;;;;4923168;29;20039;-78
2021/03/05 03:23:00;;;;;;;28.67;14.88;;;205.10;1331.20;;;;;;4921896;29;20394;-78
2021/03/05 03:25:26;;;;;;;32.38;15.45;;;205.20;1305.60;;;;;;4923169;29;20028;-76
2021/03/05 03:27:52;;;;;;;33.67;16.95;;;205.20;1305.60;;;;;;4919407;29;20039;-76
2021/03/05 03:30:18;;;;;;;31.40;15.95;;;205.30;1305.60;;;;;;4920367;29;20043;-76
2021/03/05 03:32:45;;;;;;;32.33;16.70;;;205.30;1305.60;;;;;;4920131;29;20044;-76
2021/03/05 03:35:12;;;;;;;28.23;16.02;;;205.30;1305.60;;;;;;4919990;29;20056;-76
2021/03/05 03:37:39;;;;;;;32.00;15.10;;;205.30;1305.60;;;;;;4920004;29;20052;-76
2021/03/05 03:40:09;;;;;;;32.03;16.30;;;205.30;1305.60;;;;;;4920323;29;20036;-76
2021/03/05 03:42:35;;;;;;;28.25;15.50;;;205.40;1280.00;;;;;;4920314;29;20367;-76
2021/03/05 03:45:04;;;;;;;46.67;15.82;;;205.40;1280.00;;;;;;4918901;29;20028;-75
2021/03/05 03:47:31;;;;;;;39.72;16.55;;;205.50;1280.00;;;;;;4920207;29;20020;-77
2021/03/05 03:49:59;;;;;;;32.65;15.00;;;205.50;1280.00;;;;;;4919694;29;20036;-76
2021/03/05 03:52:31;;;;;;;30.98;16.33;;;205.50;1280.00;;;;;;4919963;29;20024;-76
2021/03/05 03:54:58;;;;;;;29.70;16.23;;;205.50;1280.00;;;;;;4919848;29;20103;-75
2021/03/05 03:57:25;;;;;;;40.95;16.08;;;205.50;1280.00;;;;;;4919998;29;20385;-75
2021/03/05 03:59:53;;;;;;;39.20;16.33;;;205.50;1254.40;;;;;;4920038;29;20028;-75
2021/03/05 04:02:24;;;;;;;30.80;15.38;;;205.50;1254.40;;;;;;4919770;29;20032;-75
2021/03/05 04:04:50;;;;;;;33.53;15.88;;;205.50;1280.00;;;;;;4919701;29;20028;-75
2021/03/05 04:07:19;;;;;;;35.22;16.60;;;205.50;1254.40;;;;;;4919664;29;20187;-75
2021/03/05 04:09:45;;;;;;;43.15;16.40;;;205.50;1254.40;;;;;;4919606;29;20028;-75
2021/03/05 04:12:11;;;;;;;38.10;16.90;;;205.50;1280.00;;;;;;4919448;29;20044;-73
2021/03/05 04:14:37;;;;;;;35.75;15.43;;;205.50;1254.40;;;;;;4919524;29;20394;-75
2021/03/05 04:17:03;;;;;;;37.33;16.92;;;205.60;1254.40;;;;;;4919229;29;20475;-74
2021/03/05 04:19:30;;;;;;;43.88;16.52;;;205.50;1280.00;;;;;;4919746;29;20028;-75
2021/03/05 04:21:56;;;;;;;36.67;16.73;;;205.50;1280.00;;;;;;4920196;29;20024;-75
2021/03/05 04:24:22;;;;;;;31.75;17.45;;;205.50;1254.40;;;;;;4919467;29;20083;-75
2021/03/05 04:26:48;;;;;;;32.40;16.42;;;205.50;1254.40;;;;;;4919371;29;20029;-74
2021/03/05 04:29:13;;;;;;;39.60;16.95;;;205.50;1254.40;;;;;;4919341;29;20108;-73
2021/03/05 04:31:39;;;;;;;39.08;20.67;;;205.60;1254.40;;;;;;4919125;29;20099;-74
2021/03/05 04:34:05;;;;;;;53.33;25.73;;;205.60;1254.40;;;;;;4918951;29;20075;-82
2021/03/05 04:36:31;;;;;;;56.72;27.58;;;205.60;1254.40;;;;;;4919754;29;20036;-81
2021/03/05 04:38:56;;;;;;;59.05;22.33;;;205.60;1254.40;;;;;;4919483;29;20475;-80
2021/03/05 04:41:22;;;;;;;40.30;20.23;;;205.60;1254.40;;;;;;4919514;29;20032;-80
2021/03/05 04:43:48;;;;;;;44.35;19.13;;;205.60;1254.40;;;;;;4919421;29;20020;-76
2021/03/05 04:46:14;;;;;;;32.78;18.80;;;205.60;1254.40;;;;;;4918871;29;20052;-76
2021/03/05 04:48:39;;;;;;;32.63;17.23;;;205.60;1254.40;;;;;;4918988;29;20028;-75
2021/03/05 04:51:05;;;;;;;31.60;17.08;;;205.60;1254.40;;;;;;4919092;29;20546;-76
2021/03/05 04:53:31;;;;;;;29.45;15.50;;;205.70;1228.80;;;;;;4918980;29;20032;-76
2021/03/05 04:55:57;;;;;;;27.58;16.83;;;205.60;1228.80;;;;;;4918645;29;20039;-72
2021/03/05 04:58:23;;;;;;;32.35;15.73;;;205.60;1254.40;;;;;;4918957;29;20028;-77
2021/03/05 05:00:48;;;;;;;29.48;16.08;;;205.60;1228.80;;;;;;4918928;29;20103;-76
2021/03/05 05:03:14;;;;;;;28.08;16.73;;;205.60;1228.80;;;;;;4918958;29;20043;-78
2021/03/05 05:05:40;;;;;;;31.83;15.75;;;205.70;1228.80;;;;;;4918371;29;20166;-77
2021/03/05 05:08:06;;;;;;;25.58;14.77;;;205.70;1228.80;;;;;;4918383;29;20375;-77
2021/03/05 05:10:33;;;;;;;31.90;15.93;;;205.70;1228.80;;;;;;4919216;29;20119;-76
2021/03/05 05:12:58;;;;;;;30.98;16.27;;;205.70;1228.80;;;;;;4918535;29;20032;-78
2021/03/05 05:15:24;;;;;;;32.72;16.55;;;205.70;1228.80;;;;;;4918595;29;20173;-74
2021/03/05 05:17:50;;;;;;;27.80;15.23;;;205.70;1228.80;;;;;;4917421;29;20386;-73
2021/03/05 05:20:16;;;;;;;32.03;15.70;;;205.70;1228.80;;;;;;4918136;29;20064;-74
2021/03/05 05:22:42;;;;;;;34.15;16.08;;;205.70;1228.80;;;;;;4918118;29;20032;-74
2021/03/05 05:25:08;;;;;;;31.23;15.50;;;205.70;1228.80;;;;;;4918402;29;20104;-74
2021/03/05 05:27:35;;;;;;;30.45;16.88;;;205.70;1228.80;;;;;;4918270;29;20106;-74
2021/03/05 05:30:10;;;;;;;25.70;15.40;;;205.70;1228.80;;;;;;4918050;29;20043;-74
2021/03/05 05:32:36;;;;;;;29.92;16.75;;;205.70;1228.80;;;;;;4918126;29;20131;-75
2021/03/05 05:35:02;;;;;;;32.60;16.00;;;205.70;1228.80;;;;;;4917852;29;20123;-75
2021/03/05 05:37:27;;;;;;;27.65;15.95;;;230.40;1228.80;;;;;;4917899;29;20103;-76
2021/03/05 05:39:53;;;;;;;30.40;16.15;;;230.40;1203.20;;;;;;4917969;29;20036;-73
2021/03/05 05:42:19;;;;;;;28.13;15.38;;;230.40;1203.20;;;;;;4917952;29;20036;-72
2021/03/05 05:44:48;;;;;;;26.80;15.27;;;230.50;1203.20;;;;;;4917934;29;20039;-73
2021/03/05 05:47:16;;;;;;;29.42;15.25;;;230.50;1203.20;;;;;;4918058;29;20083;-73
2021/03/05 05:49:45;;;;;;;38.85;16.02;;;230.50;1203.20;;;;;;4917284;29;20107;-73
2021/03/05 05:52:30;;;;;;;46.63;16.73;;;230.60;1203.20;;;;;;4917874;29;20128;-73
2021/03/05 05:54:56;;;;;;;37.97;16.33;;;230.70;1203.20;;;;;;4917695;29;20051;-73
2021/03/05 05:57:23;;;;;;;34.75;15.98;;;230.70;1203.20;;;;;;4917741;29;20044;-72
2021/03/05 05:59:49;;;;;;;32.65;15.48;;;230.70;1203.20;;;;;;4917995;29;20032;-74
2021/03/05 06:02:17;;;;;;;34.22;15.75;;;230.70;1177.60;;;;;;4917612;29;20032;-72
2021/03/05 06:04:44;;;;;;;43.50;15.80;;;230.80;1177.60;;;;;;4917647;29;20151;-74
2021/03/05 06:07:12;;;;;;;32.63;14.60;;;230.80;1177.60;;;;;;4918095;29;20414;-75
2021/03/05 06:09:37;;;;;;;43.28;16.02;;;230.80;1177.60;;;;;;4917317;29;20497;-75
2021/03/05 06:12:13;;;;;;;40.85;15.18;;;230.90;1177.60;;;;;;4917667;29;20040;-77
2021/03/05 06:14:41;;;;;;;32.15;16.40;;;230.90;1203.20;;;;;;4917504;29;20032;-72
2021/03/05 06:17:07;;;;;;;54.55;14.93;;;230.90;1177.60;;;;;;4917632;29;20561;-76
2021/03/05 06:19:33;;;;;;;31.80;14.30;;;230.90;1177.60;;;;;;4917279;29;20021;-73
2021/03/05 06:22:00;;;;;;;34.17;14.18;;;231.00;1152.00;;;;;;4917500;29;20032;-73
2021/03/05 06:24:29;;;;;;;38.08;14.02;;;231.00;1152.00;;;;;;4917681;29;20386;-77
2021/03/05 06:26:58;;;;;;;41.88;14.82;;;231.00;1152.00;;;;;;4917580;29;20039;-77
2021/03/05 06:29:28;;;;;;;40.00;15.38;;;231.10;1152.00;;;;;;4917520;29;20155;-77
2021/03/05 06:32:02;;;;;;;38.50;17.95;;;231.10;1152.00;;;;;;4917831;29;20499;-77
2021/03/05 06:34:46;;;;;;;41.90;21.33;;;231.20;1126.40;;;;;;4917069;29;20071;-77
2021/03/05 06:37:12;;;;;;;56.92;23.02;;;231.30;1126.40;;;;;;4917369;29;20059;-78
2021/03/05 06:39:38;;;;;;;47.28;21.98;;;231.30;1100.80;;;;;;4917506;29;20051;-77
2021/03/05 06:42:05;;;;;;;53.58;24.35;;;231.30;1100.80;;;;;;4917460;29;20029;-76
2021/03/05 06:44:33;;;;;;;53.17;26.63;;;256.00;1100.80;;;;;;4917141;29;20032;-78
2021/03/05 06:47:11;;;;;;;55.35;30.02;;;256.10;1075.20;;;;;;4917442;29;20515;-77
2021/03/05 06:49:37;;;;;;;50.08;27.73;;;256.20;1075.20;;;;;;4915958;29;20032;-77
2021/03/05 06:52:06;;;;;;;57.70;22.50;;;256.30;1075.20;;;;;;4917383;29;20044;-77
2021/03/05 06:54:35;;;;;;;35.65;18.83;;;256.30;1075.20;;;;;;4917364;29;20047;-77
2021/03/05 06:57:02;;;;;;;43.45;18.80;;;256.40;1049.60;;;;;;4917173;29;20483;-77
2021/03/05 06:59:36;;;;;;;34.47;16.48;;;256.40;1049.60;;;;;;4917268;29;20020;-77
2021/03/05 07:02:03;;;;;;;34.80;16.17;;;256.50;1049.60;;;;;;4918666;29;20080;-73
2021/03/05 07:04:30;;;;;;;34.15;15.05;;;256.60;1049.60;;;;;;4920902;29;20034;-77
2021/03/05 07:07:10;;;;;;;40.58;15.60;;;256.60;1049.60;;;;;;4920825;29;20038;-77
2021/03/05 07:09:36;;;;;;;63.53;29.98;;;256.60;1049.60;;;;;;4921109;29;20028;-76
2021/03/05 07:12:31;;;;;;;107.78;65.60;;;256.70;1049.60;;;;;;4920448;29;20039;-77
2021/03/05 07:15:05;;;;;;;184.45;98.78;;;256.80;1049.60;;;;;;4862573;29;20041;-77
2021/03/05 07:17:31;;;;;;;166.52;100.43;;;256.80;1049.60;;;;;;4862435;29;20075;-77
2021/03/05 07:19:58;;;;;;;105.57;57.55;;;256.90;1049.60;;;;;;4862225;29;20535;-77
2021/03/05 07:22:29;;;;;;;67.38;38.80;;;281.60;1075.20;;;;;;4862168;29;20061;-77
2021/03/05 07:24:56;;;;;;;50.03;27.77;;;281.70;1075.20;;;;;;4862300;29;20116;-76
2021/03/05 07:27:28;;;;;;;47.67;19.20;;;281.80;1075.20;;;;;;4862216;29;20053;-77
2021/03/05 07:29:57;;;;;;;50.85;15.07;;;281.90;1075.20;;;;;;4862443;29;20053;-77
2021/03/05 07:32:53;;;;;;;37.03;15.55;;;282.10;1075.20;;;;;;4862101;29;20061;-78
2021/03/05 07:35:40;;;;;;;49.63;17.00;;;282.20;1049.60;;;;;;4862044;29;20397;-78
2021/03/05 07:38:12;;;;;;;38.63;14.60;;;282.40;1049.60;;;;;;4862024;29;20098;-78
2021/03/05 07:40:38;;;;;;;45.05;16.45;;;307.20;1075.20;;;;;;4862170;29;20029;-77
2021/03/05 07:43:05;;;;;;;65.22;20.50;;;307.40;1075.20;;;;;;4862068;29;20578;-78
2021/03/05 07:45:31;;;;;;;76.68;35.30;;;307.60;1075.20;;;;;;4861896;29;20048;-78
2021/03/05 07:47:58;;;;;;;121.55;47.05;;;307.70;1049.60;;;;;;4861907;29;20037;-76
2021/03/05 07:50:26;;;;;;;88.20;36.58;;;307.90;1049.60;;;;;;4866277;29;20030;-78
2021/03/05 07:52:54;;;;;;;49.70;21.55;;;332.80;1049.60;;;;;;4900928;29;20577;-78
2021/03/05 07:55:40;;;;;;;52.55;24.02;;;332.90;1024.00;;;;;;4901157;29;20028;-78
2021/03/05 07:58:06;;;;;;;45.88;21.70;;;333.10;1024.00;;;;;;4900969;29;20032;-78
2021/03/05 08:00:47;;;;;;;36.80;18.33;;;333.20;1024.00;;;;;;4901131;29;20032;-78
2021/03/05 08:03:13;;;;;;;35.13;15.57;;;333.40;998.40;;;;;;4900896;29;20463;-78
2021/03/05 08:05:44;;;;;;;41.05;15.57;;;333.50;998.40;;;;;;4900841;29;20032;-77
2021/03/05 08:08:11;;;;;;;42.72;15.55;;;333.60;998.40;;;;;;4900804;29;20060;-78
2021/03/05 08:10:39;;;;;;;52.42;18.85;;;358.40;998.40;;;;;;4900914;29;20032;-77
2021/03/05 08:13:58;;;;;;;62.60;20.80;;;358.50;998.40;;;;;;4899906;29;20033;-77
2021/03/05 08:16:32;;;;;;;30.98;15.48;;;358.60;972.80;;;;;;4900372;29;20044;-77
2021/03/05 08:19:16;;;;;;;29.98;13.60;;;358.80;947.20;;;;;;4900753;29;20033;-76
2021/03/05 08:21:51;;;;;;;30.98;20.55;;;358.90;947.20;;;;;;4900176;29;20028;-75
2021/03/05 08:24:42;;;;;;;31.17;15.45;;;358.90;947.20;;;;;;4900492;29;20474;-77
2021/03/05 08:27:20;;;;;;;48.65;12.57;;;359.10;947.20;;;;;;4897416;29;20463;-82
2021/03/05 08:29:56;;;;;;;34.42;11.68;;;359.30;921.60;;;;;;4899251;29;20032;-73
2021/03/05 08:32:33;;;;;;;287.60;204.55;;;384.10;921.60;;;;;;4900440;29;20033;-75
2021/03/05 08:35:10;;;;;;;43.67;14.10;;;384.20;896.00;;;;;;4917811;29;20020;-76
2021/03/05 08:37:39;;;;;;;29.92;10.95;;;384.40;870.40;;;;;;4917984;29;20032;-81
2021/03/05 08:40:11;;;;;;;30.65;14.73;;;384.50;844.80;;;;;;4916281;29;20498;-73
2021/03/05 08:42:41;;;;;;;38.67;12.75;;;384.50;844.80;;;;;;4917501;29;20114;-63
2021/03/05 08:45:15;;;;;;;31.00;13.68;;;384.50;844.80;;;;;;4917481;29;20028;-72
2021/03/05 08:47:48;;;;;;;31.37;12.47;;;384.50;844.80;;;;;;4917884;29;20447;-73
2021/03/05 08:50:16;;;;;;;23.45;10.68;;;384.50;844.80;;;;;;4914676;29;20783;-65
2021/03/05 08:52:44;;;;;;;25.33;10.00;;;384.50;870.40;;;;;;4914320;29;20066;-73
2021/03/05 08:55:11;;;;;;;31.27;9.90;;;384.60;844.80;;;;;;4916244;29;20116;-74
2021/03/05 08:57:45;;;;;;;17.70;9.30;;;384.60;844.80;;;;;;4917516;29;20056;-64
2021/03/05 09:00:14;;;;;;;21.13;10.65;;;384.70;870.40;;;;;;4917662;29;20474;-68
2021/03/05 09:02:42;;;;;;;31.40;11.07;;;384.80;870.40;;;;;;4917548;29;20534;-69
2021/03/05 09:05:08;;;;;;;21.88;9.23;;;384.90;870.40;;;;;;4915937;29;20040;-63
2021/03/05 09:07:55;;;;;;;26.70;9.68;;;409.70;870.40;;;;;;4917609;29;20028;-64
2021/03/05 09:10:36;;;;;;;18.15;9.48;;;409.70;896.00;;;;;;4917639;29;20047;-68
2021/03/05 09:13:02;;;;;;;24.17;9.68;;;410.00;870.40;;;;;;4917081;29;20043;-64
2021/03/05 09:15:44;;;;;;;27.80;10.23;;;410.10;870.40;;;;;;4917038;29;20039;-64
2021/03/05 09:18:16;;;;;;;30.00;10.57;;;410.30;870.40;;;;;;4917347;29;20028;-66
2021/03/05 09:20:47;;;;;;;31.13;11.15;;;410.50;870.40;;;;;;4917190;29;20374;-64
2021/03/05 09:23:22;;;;;;;27.58;10.82;;;435.30;844.80;;;;;;4917444;29;20028;-64
2021/03/05 09:25:56;;;;;;;38.20;10.82;;;435.40;844.80;;;;;;4916150;29;20062;-64
2021/03/05 09:28:36;;;;;;;81.75;12.15;;;435.40;844.80;;;;;;4917425;29;20048;-64
2021/03/05 09:31:02;;;;;;;62.38;13.32;;;435.40;870.40;;;;;;4917129;29;20043;-66
2021/03/05 09:33:34;;;;;;;58.38;13.00;;;435.30;870.40;;;;;;4916879;29;20052;-64
2021/03/05 09:36:10;;;;;;;47.70;12.73;;;435.30;896.00;;;;;;4917038;29;20028;-64
2021/03/05 09:38:37;;;;;;;32.25;12.07;;;435.20;870.40;;;;;;4916874;29;20115;-65
2021/03/05 09:41:20;;;;;;;49.95;11.88;;;435.20;896.00;;;;;;4916602;29;20020;-64
2021/03/05 09:43:56;;;;;;;36.25;11.43;;;410.50;896.00;;;;;;4916896;29;20035;-64
2021/03/05 09:46:25;;;;;;;36.50;12.93;;;410.40;896.00;;;;;;4916647;29;20028;-64
2021/03/05 09:48:52;;;;;;;47.67;13.25;;;410.30;921.60;;;;;;4916496;29;20032;-64
2021/03/05 09:51:18;;;;;;;53.55;16.00;;;410.20;947.20;;;;;;4916213;29;20040;-64
2021/03/05 09:53:56;;;;;;;50.65;17.58;;;410.10;947.20;;;;;;4917068;29;20107;-64
2021/03/05 09:56:27;;;;;;;32.47;14.50;;;410.10;972.80;;;;;;4916542;29;20028;-64
2021/03/05 09:58:55;;;;;;;38.65;14.18;;;410.10;972.80;;;;;;4916883;29;20032;-64
2021/03/05 10:01:21;;;;;;;42.60;13.60;;;410.10;972.80;;;;;;4916746;29;20386;-65
2021/03/05 10:04:00;;;;;;;41.08;14.27;;;410.10;998.40;;;;;;4915917;29;20478;-63
2021/03/05 10:06:28;;;;;;;34.50;12.75;;;410.10;998.40;;;;;;4916353;29;20530;-64
2021/03/05 10:09:05;;;;;;;30.67;13.23;;;410.10;972.80;;;;;;4916641;29;20024;-64
2021/03/05 10:11:38;;;;;;;29.48;15.55;;;410.10;998.40;;;;;;4916181;29;20032;-64
2021/03/05 10:14:21;;;;;;;37.70;14.32;;;410.10;998.40;;;;;;4916536;29;20020;-67
2021/03/05 10:16:47;;;;;;;38.30;14.32;;;410.10;998.40;;;;;;4916574;29;20035;-64
2021/03/05 10:19:22;;;;;;;29.20;13.85;;;410.20;998.40;;;;;;4914961;29;20118;-65
2021/03/05 10:21:53;;;;;;;32.60;13.38;;;410.20;998.40;;;;;;4916726;29;20039;-66
2021/03/05 10:24:20;;;;;;;35.00;14.32;;;410.30;998.40;;;;;;4916414;29;20035;-64
2021/03/05 10:27:21;;;;;;;;;;;;;;;;;;;;;
2021/03/05 10:29:46;;;;;;;32.05;17.00;;;410.50;1024.00;;;;;;4916183;29;20067;-73
2021/03/05 10:32:22;;;;;;;50.70;17.08;;;435.30;998.40;;;;;;4916322;29;20044;-65
2021/03/05 10:34:50;;;;;;;29.63;16.58;;;435.40;972.80;;;;;;4916334;29;20461;-66
2021/03/05 10:37:17;;;;;;;29.85;16.85;;;435.40;972.80;;;;;;4919795;29;20032;-64
2021/03/05 10:39:44;;;;;;;28.75;16.25;;;435.40;972.80;;;;;;4920389;29;20099;-67
2021/03/05 10:42:15;;;;;;;32.90;16.50;;;435.60;972.80;;;;;;4920015;29;20024;-64
2021/03/05 10:44:42;;;;;;;32.88;17.02;;;435.60;972.80;;;;;;4919670;29;20032;-64
2021/03/05 10:47:11;;;;;;;30.80;16.63;;;435.60;972.80;;;;;;4919870;29;20489;-65
2021/03/05 10:49:38;;;;;;;44.85;23.55;;;435.60;972.80;;;;;;4919765;29;20032;-64
2021/03/05 10:52:05;;;;;;;45.70;22.83;;;435.60;998.40;;;;;;4916495;29;20105;-64
2021/03/05 10:54:31;;;;;;;38.05;19.88;;;435.70;972.80;;;;;;4919378;29;20024;-65
2021/03/05 10:56:57;;;;;;;47.38;21.83;;;435.70;972.80;;;;;;4919461;29;20034;-65
2021/03/05 10:59:23;;;;;;;35.83;19.35;;;435.70;972.80;;;;;;4919445;29;20406;-68
2021/03/05 11:01:54;;;;;;;41.92;18.98;;;435.60;972.80;;;;;;4918687;29;20482;-64
2021/03/05 11:04:21;;;;;;;42.28;20.77;;;435.60;972.80;;;;;;4932347;29;20123;-65
2021/03/05 11:06:47;;;;;;;30.83;18.67;;;435.50;998.40;;;;;;4914683;29;20583;-64
2021/03/05 11:09:13;;;;;;;43.45;21.67;;;435.40;998.40;;;;;;4912511;29;20045;-65
2021/03/05 11:11:40;;;;;;;36.90;21.35;;;435.40;998.40;;;;;;4917026;29;20127;-64
2021/03/05 11:14:06;;;;;;;34.58;21.00;;;435.40;998.40;;;;;;4918224;29;20021;-65
2021/03/05 11:16:32;;;;;;;43.60;20.45;;;435.40;998.40;;;;;;4918604;29;20045;-64
2021/03/05 11:18:57;;;;;;;37.92;18.25;;;435.40;998.40;;;;;;4917611;29;20042;-64
2021/03/05 11:21:29;;;;;;;32.90;18.30;;;435.30;998.40;;;;;;4917940;29;20112;-65
2021/03/05 11:23:55;;;;;;;28.52;16.35;;;435.30;1024.00;;;;;;4901507;29;20364;-64
2021/03/05 11:26:22;;;;;;;40.78;17.60;;;435.30;998.40;;;;;;4917433;29;20028;-65
2021/03/05 11:28:48;;;;;;;31.08;17.45;;;435.30;998.40;;;;;;4915762;29;20028;-67
2021/03/05 11:31:14;;;;;;;28.58;16.88;;;435.30;1024.00;;;;;;4917940;29;20059;-64
2021/03/05 11:33:43;;;;;;;30.67;16.50;;;435.30;1024.00;;;;;;4917354;29;20473;-66
2021/03/05 11:36:09;;;;;;;33.95;17.60;;;435.30;1024.00;;;;;;4916531;29;20052;-65
2021/03/05 11:38:35;;;;;;;28.67;17.58;;;435.30;1024.00;;;;;;4919148;29;20478;-64
2021/03/05 11:41:00;;;;;;;32.03;16.70;;;435.30;1024.00;;;;;;4918761;29;20024;-64
2021/03/05 11:43:26;;;;;;;27.15;15.70;;;435.30;1024.00;;;;;;4919109;29;20028;-66
2021/03/05 11:45:52;;;;;;;30.52;17.00;;;435.40;1024.00;;;;;;4918608;29;20043;-64
2021/03/05 11:48:18;;;;;;;30.83;16.52;;;435.40;1024.00;;;;;;4917718;29;20103;-65
2021/03/05 11:50:44;;;;;;;29.00;15.02;;;435.40;1024.00;;;;;;4918462;29;20047;-64
2021/03/05 11:53:10;;;;;;;33.10;15.20;;;435.40;1049.60;;;;;;4919158;29;20028;-64
2021/03/05 11:55:35;;;;;;;22.83;14.25;;;435.40;1049.60;;;;;;4918597;29;20067;-65
2021/03/05 11:58:02;;;;;;;30.67;14.98;;;435.30;1049.60;;;;;;4918476;29;20498;-66
2021/03/05 12:00:31;;;;;;;22.17;14.55;;;435.30;1049.60;;;;;;4918870;29;20047;-65
2021/03/05 12:02:58;;;;;;;26.98;17.40;;;435.20;1049.60;;;;;;4918563;29;20036;-64
2021/03/05 12:05:24;;;;;;;27.70;17.73;;;410.50;1049.60;;;;;;4918482;29;20028;-64
2021/03/05 12:07:50;;;;;;;32.25;17.00;;;410.40;1075.20;;;;;;4918358;29;20028;-65
2021/03/05 12:10:16;;;;;;;33.20;17.88;;;410.30;1075.20;;;;;;4918386;29;20038;-65
2021/03/05 12:12:42;;;;;;;40.42;18.83;;;410.30;1075.20;;;;;;4918807;29;20043;-64
2021/03/05 12:15:08;;;;;;;34.05;20.75;;;410.20;1075.20;;;;;;4918572;29;20382;-64